sensor_id;sensor_type;location;lat;lon;timestamp;temperature;humidity
65378;SHT31;51982;51.042;13.806;2023-03-01T00:01:05;1.34;80.09
65378;SHT31;51982;51.042;13.806;2023-03-01T00:03:31;1.34;80.34
65378;SHT31;51982;51.042;13.806;2023-03-01T00:05:57;1.32;80.46
65378;SHT31;51982;51.042;13.806;2023-03-01T00:08:22;1.32;80.42
65378;SHT31;51982;51.042;13.806;2023-03-01T00:10:47;1.27;80.51
65378;SHT31;51982;51.042;13.806;2023-03-01T00:13:13;1.27;80.53
65378;SHT31;51982;51.042;13.806;2023-03-01T00:15:39;1.20;80.65
65378;SHT31;51982;51.042;13.806;2023-03-01T00:18:05;1.22;80.79
65378;SHT31;51982;51.042;13.806;2023-03-01T00:20:30;1.23;80.93
65378;SHT31;51982;51.042;13.806;2023-03-01T00:22:58;1.20;80.87
65378;SHT31;51982;51.042;13.806;2023-03-01T00:25:23;1.20;80.82
65378;SHT31;51982;51.042;13.806;2023-03-01T00:27:48;1.23;80.65
65378;SHT31;51982;51.042;13.806;2023-03-01T00:30:14;1.20;80.60
65378;SHT31;51982;51.042;13.806;2023-03-01T00:32:39;1.20;80.52
65378;SHT31;51982;51.042;13.806;2023-03-01T00:35:05;1.19;80.28
65378;SHT31;51982;51.042;13.806;2023-03-01T00:37:30;1.19;80.09
65378;SHT31;51982;51.042;13.806;2023-03-01T00:39:56;1.15;79.94
65378;SHT31;51982;51.042;13.806;2023-03-01T00:42:21;1.10;79.98
65378;SHT31;51982;51.042;13.806;2023-03-01T00:44:47;1.07;79.78
65378;SHT31;51982;51.042;13.806;2023-03-01T00:47:12;1.04;79.82
65378;SHT31;51982;51.042;13.806;2023-03-01T00:49:38;1.00;79.85
65378;SHT31;51982;51.042;13.806;2023-03-01T00:52:04;0.93;79.76
65378;SHT31;51982;51.042;13.806;2023-03-01T00:54:29;0.91;79.76
65378;SHT31;51982;51.042;13.806;2023-03-01T00:56:54;0.91;79.74
65378;SHT31;51982;51.042;13.806;2023-03-01T00:59:19;0.91;79.75
65378;SHT31;51982;51.042;13.806;2023-03-01T01:01:44;0.88;79.83
65378;SHT31;51982;51.042;13.806;2023-03-01T01:04:12;0.83;80.06
65378;SHT31;51982;51.042;13.806;2023-03-01T01:06:46;0.79;80.03
65378;SHT31;51982;51.042;13.806;2023-03-01T01:09:14;0.82;80.01
65378;SHT31;51982;51.042;13.806;2023-03-01T01:11:45;0.86;79.91
65378;SHT31;51982;51.042;13.806;2023-03-01T01:14:11;0.82;80.05
65378;SHT31;51982;51.042;13.806;2023-03-01T01:16:37;0.78;80.09
65378;SHT31;51982;51.042;13.806;2023-03-01T01:19:02;0.75;80.13
65378;SHT31;51982;51.042;13.806;2023-03-01T01:21:29;0.75;80.20
65378;SHT31;51982;51.042;13.806;2023-03-01T01:23:55;0.72;80.36
65378;SHT31;51982;51.042;13.806;2023-03-01T01:26:31;0.66;80.42
65378;SHT31;51982;51.042;13.806;2023-03-01T01:28:57;0.65;80.71
65378;SHT31;51982;51.042;13.806;2023-03-01T01:31:23;0.66;80.88
65378;SHT31;51982;51.042;13.806;2023-03-01T01:33:50;0.62;81.03
65378;SHT31;51982;51.042;13.806;2023-03-01T01:36:16;0.59;81.11
65378;SHT31;51982;51.042;13.806;2023-03-01T01:38:41;0.57;81.16
65378;SHT31;51982;51.042;13.806;2023-03-01T01:41:08;0.54;81.13
65378;SHT31;51982;51.042;13.806;2023-03-01T01:43:39;0.52;81.00
65378;SHT31;51982;51.042;13.806;2023-03-01T01:49:02;0.51;80.69
65378;SHT31;51982;51.042;13.806;2023-03-01T01:51:32;0.48;80.65
65378;SHT31;51982;51.042;13.806;2023-03-01T01:54:07;0.51;80.59
65378;SHT31;51982;51.042;13.806;2023-03-01T01:56:36;0.48;80.61
65378;SHT31;51982;51.042;13.806;2023-03-01T01:59:03;0.41;80.91
65378;SHT31;51982;51.042;13.806;2023-03-01T02:01:28;0.42;80.89
65378;SHT31;51982;51.042;13.806;2023-03-01T02:03:53;0.45;80.77
65378;SHT31;51982;51.042;13.806;2023-03-01T02:06:28;0.45;80.44
65378;SHT31;51982;51.042;13.806;2023-03-01T02:08:57;0.42;80.56
65378;SHT31;51982;51.042;13.806;2023-03-01T02:11:24;0.42;80.56
65378;SHT31;51982;51.042;13.806;2023-03-01T02:13:51;0.37;80.67
65378;SHT31;51982;51.042;13.806;2023-03-01T02:16:17;0.37;80.78
65378;SHT31;51982;51.042;13.806;2023-03-01T02:18:43;0.34;80.71
65378;SHT31;51982;51.042;13.806;2023-03-01T02:23:59;0.37;80.71
65378;SHT31;51982;51.042;13.806;2023-03-01T02:26:40;0.28;80.87
65378;SHT31;51982;51.042;13.806;2023-03-01T02:29:06;0.27;81.08
65378;SHT31;51982;51.042;13.806;2023-03-01T02:31:32;0.31;80.96
65378;SHT31;51982;51.042;13.806;2023-03-01T02:34:07;0.30;80.82
65378;SHT31;51982;51.042;13.806;2023-03-01T02:36:38;0.22;80.51
65378;SHT31;51982;51.042;13.806;2023-03-01T02:39:07;0.20;80.61
65378;SHT31;51982;51.042;13.806;2023-03-01T02:41:41;0.13;80.82
65378;SHT31;51982;51.042;13.806;2023-03-01T02:44:07;0.11;80.83
65378;SHT31;51982;51.042;13.806;2023-03-01T02:46:33;0.13;80.63
65378;SHT31;51982;51.042;13.806;2023-03-01T02:48:58;0.13;80.51
65378;SHT31;51982;51.042;13.806;2023-03-01T02:54:08;0.08;80.46
65378;SHT31;51982;51.042;13.806;2023-03-01T02:56:37;0.11;80.31
65378;SHT31;51982;51.042;13.806;2023-03-01T02:59:02;0.10;80.21
65378;SHT31;51982;51.042;13.806;2023-03-01T03:01:28;0.03;80.36
65378;SHT31;51982;51.042;13.806;2023-03-01T03:04:07;0.00;80.47
65378;SHT31;51982;51.042;13.806;2023-03-01T03:06:34;0.06;80.37
65378;SHT31;51982;51.042;13.806;2023-03-01T03:09:00;0.07;80.20
65378;SHT31;51982;51.042;13.806;2023-03-01T03:11:25;0.04;80.20
65378;SHT31;51982;51.042;13.806;2023-03-01T03:13:51;0.01;80.08
65378;SHT31;51982;51.042;13.806;2023-03-01T03:16:17;0.03;80.09
65378;SHT31;51982;51.042;13.806;2023-03-01T03:18:42;-0.02;80.12
65378;SHT31;51982;51.042;13.806;2023-03-01T03:21:08;-0.04;80.20
65378;SHT31;51982;51.042;13.806;2023-03-01T03:23:35;-0.07;80.30
65378;SHT31;51982;51.042;13.806;2023-03-01T03:26:02;-0.14;80.38
65378;SHT31;51982;51.042;13.806;2023-03-01T03:28:29;-0.15;80.52
65378;SHT31;51982;51.042;13.806;2023-03-01T03:30:55;-0.13;80.53
65378;SHT31;51982;51.042;13.806;2023-03-01T03:33:20;-0.11;80.49
65378;SHT31;51982;51.042;13.806;2023-03-01T03:35:49;-0.11;80.41
65378;SHT31;51982;51.042;13.806;2023-03-01T03:38:16;-0.10;80.50
65378;SHT31;51982;51.042;13.806;2023-03-01T03:40:50;-0.11;80.42
65378;SHT31;51982;51.042;13.806;2023-03-01T03:43:21;-0.20;80.79
65378;SHT31;51982;51.042;13.806;2023-03-01T03:45:48;-0.25;80.99
65378;SHT31;51982;51.042;13.806;2023-03-01T03:48:14;-0.23;81.04
65378;SHT31;51982;51.042;13.806;2023-03-01T03:50:40;-0.18;80.93
65378;SHT31;51982;51.042;13.806;2023-03-01T03:53:09;-0.18;80.88
65378;SHT31;51982;51.042;13.806;2023-03-01T03:55:34;-0.28;81.15
65378;SHT31;51982;51.042;13.806;2023-03-01T03:58:01;-0.27;81.24
65378;SHT31;51982;51.042;13.806;2023-03-01T04:00:36;-0.24;81.18
65378;SHT31;51982;51.042;13.806;2023-03-01T04:03:01;-0.27;81.09
65378;SHT31;51982;51.042;13.806;2023-03-01T04:05:27;-0.24;81.08
65378;SHT31;51982;51.042;13.806;2023-03-01T04:07:52;-0.25;81.13
65378;SHT31;51982;51.042;13.806;2023-03-01T04:10:28;-0.27;81.22
65378;SHT31;51982;51.042;13.806;2023-03-01T04:12:54;-0.30;81.33
65378;SHT31;51982;51.042;13.806;2023-03-01T04:15:21;-0.37;81.67
65378;SHT31;51982;51.042;13.806;2023-03-01T04:17:49;-0.34;81.66
65378;SHT31;51982;51.042;13.806;2023-03-01T04:20:17;-0.34;81.51
65378;SHT31;51982;51.042;13.806;2023-03-01T04:22:43;-0.33;81.46
65378;SHT31;51982;51.042;13.806;2023-03-01T04:25:12;-0.33;81.43
65378;SHT31;51982;51.042;13.806;2023-03-01T04:27:39;-0.33;81.32
65378;SHT31;51982;51.042;13.806;2023-03-01T04:30:05;-0.34;81.30
65378;SHT31;51982;51.042;13.806;2023-03-01T04:32:30;-0.50;81.65
65378;SHT31;51982;51.042;13.806;2023-03-01T04:34:55;-0.53;81.91
65378;SHT31;51982;51.042;13.806;2023-03-01T04:37:20;-0.51;81.71
65378;SHT31;51982;51.042;13.806;2023-03-01T04:39:46;-0.47;81.46
65378;SHT31;51982;51.042;13.806;2023-03-01T04:42:12;-0.57;81.58
65378;SHT31;51982;51.042;13.806;2023-03-01T04:44:37;-0.65;81.78
65378;SHT31;51982;51.042;13.806;2023-03-01T04:47:03;-0.66;81.91
65378;SHT31;51982;51.042;13.806;2023-03-01T04:49:28;-0.65;81.69
65378;SHT31;51982;51.042;13.806;2023-03-01T04:51:53;-0.68;81.40
65378;SHT31;51982;51.042;13.806;2023-03-01T04:54:19;-0.66;81.34
65378;SHT31;51982;51.042;13.806;2023-03-01T04:56:44;-0.61;81.11
65378;SHT31;51982;51.042;13.806;2023-03-01T04:59:09;-0.60;81.00
65378;SHT31;51982;51.042;13.806;2023-03-01T05:01:35;-0.57;80.83
65378;SHT31;51982;51.042;13.806;2023-03-01T05:04:00;-0.58;80.75
65378;SHT31;51982;51.042;13.806;2023-03-01T05:06:28;-0.58;80.64
65378;SHT31;51982;51.042;13.806;2023-03-01T05:08:53;-0.65;80.69
65378;SHT31;51982;51.042;13.806;2023-03-01T05:11:18;-0.75;80.96
65378;SHT31;51982;51.042;13.806;2023-03-01T05:13:44;-0.78;81.11
65378;SHT31;51982;51.042;13.806;2023-03-01T05:16:09;-0.74;80.97
65378;SHT31;51982;51.042;13.806;2023-03-01T05:18:36;-0.72;80.72
65378;SHT31;51982;51.042;13.806;2023-03-01T05:21:05;-0.75;80.70
65378;SHT31;51982;51.042;13.806;2023-03-01T05:23:31;-0.75;80.68
65378;SHT31;51982;51.042;13.806;2023-03-01T05:26:00;-0.78;80.61
65378;SHT31;51982;51.042;13.806;2023-03-01T05:28:27;-0.79;80.60
65378;SHT31;51982;51.042;13.806;2023-03-01T05:30:53;-0.82;80.66
65378;SHT31;51982;51.042;13.806;2023-03-01T05:33:18;-0.84;80.72
65378;SHT31;51982;51.042;13.806;2023-03-01T05:35:45;-0.82;80.80
65378;SHT31;51982;51.042;13.806;2023-03-01T05:38:11;-0.86;80.79
65378;SHT31;51982;51.042;13.806;2023-03-01T05:40:45;-0.88;81.05
65378;SHT31;51982;51.042;13.806;2023-03-01T05:43:12;-0.84;80.99
65378;SHT31;51982;51.042;13.806;2023-03-01T05:45:38;-0.81;80.92
65378;SHT31;51982;51.042;13.806;2023-03-01T05:48:05;-0.85;80.92
65378;SHT31;51982;51.042;13.806;2023-03-01T05:50:36;-0.85;80.99
65378;SHT31;51982;51.042;13.806;2023-03-01T05:53:04;-0.84;81.01
65378;SHT31;51982;51.042;13.806;2023-03-01T05:55:31;-0.84;80.88
65378;SHT31;51982;51.042;13.806;2023-03-01T05:58:02;-0.86;80.70
65378;SHT31;51982;51.042;13.806;2023-03-01T06:00:29;-0.81;80.75
65378;SHT31;51982;51.042;13.806;2023-03-01T06:02:55;-0.81;80.60
65378;SHT31;51982;51.042;13.806;2023-03-01T06:05:21;-0.85;80.59
65378;SHT31;51982;51.042;13.806;2023-03-01T06:07:47;-0.86;80.74
65378;SHT31;51982;51.042;13.806;2023-03-01T06:10:13;-0.85;80.89
65378;SHT31;51982;51.042;13.806;2023-03-01T06:12:40;-0.79;80.70
65378;SHT31;51982;51.042;13.806;2023-03-01T06:15:07;-0.75;80.58
65378;SHT31;51982;51.042;13.806;2023-03-01T06:17:35;-0.62;80.56
65378;SHT31;51982;51.042;13.806;2023-03-01T06:20:05;-0.65;80.56
65378;SHT31;51982;51.042;13.806;2023-03-01T06:22:30;-0.53;80.57
65378;SHT31;51982;51.042;13.806;2023-03-01T06:24:56;-0.48;80.36
65378;SHT31;51982;51.042;13.806;2023-03-01T06:27:21;-0.40;80.34
65378;SHT31;51982;51.042;13.806;2023-03-01T06:29:46;-0.34;80.09
65378;SHT31;51982;51.042;13.806;2023-03-01T06:32:11;-0.25;80.10
65378;SHT31;51982;51.042;13.806;2023-03-01T06:34:37;-0.21;79.85
65378;SHT31;51982;51.042;13.806;2023-03-01T06:37:02;-0.25;79.80
65378;SHT31;51982;51.042;13.806;2023-03-01T06:39:30;-0.24;80.00
65378;SHT31;51982;51.042;13.806;2023-03-01T06:41:55;-0.17;79.86
65378;SHT31;51982;51.042;13.806;2023-03-01T06:44:21;-0.11;79.69
65378;SHT31;51982;51.042;13.806;2023-03-01T06:46:46;-0.10;79.53
65378;SHT31;51982;51.042;13.806;2023-03-01T06:49:12;-0.09;79.72
65378;SHT31;51982;51.042;13.806;2023-03-01T06:51:37;-0.11;79.75
65378;SHT31;51982;51.042;13.806;2023-03-01T06:54:04;-0.09;79.43
65378;SHT31;51982;51.042;13.806;2023-03-01T06:56:30;-0.11;79.41
65378;SHT31;51982;51.042;13.806;2023-03-01T06:58:55;-0.09;79.46
65378;SHT31;51982;51.042;13.806;2023-03-01T07:01:20;-0.06;79.36
65378;SHT31;51982;51.042;13.806;2023-03-01T07:03:45;-0.09;79.28
65378;SHT31;51982;51.042;13.806;2023-03-01T07:06:11;-0.13;79.47
65378;SHT31;51982;51.042;13.806;2023-03-01T07:08:36;-0.11;79.35
65378;SHT31;51982;51.042;13.806;2023-03-01T07:11:01;-0.20;79.42
65378;SHT31;51982;51.042;13.806;2023-03-01T07:13:28;-0.18;79.53
65378;SHT31;51982;51.042;13.806;2023-03-01T07:15:53;-0.20;79.48
65378;SHT31;51982;51.042;13.806;2023-03-01T07:18:19;-0.15;79.76
65378;SHT31;51982;51.042;13.806;2023-03-01T07:20:44;-0.04;79.70
65378;SHT31;51982;51.042;13.806;2023-03-01T07:23:10;0.00;79.39
65378;SHT31;51982;51.042;13.806;2023-03-01T07:25:38;0.06;79.08
65378;SHT31;51982;51.042;13.806;2023-03-01T07:28:03;0.13;78.89
65378;SHT31;51982;51.042;13.806;2023-03-01T07:30:29;0.11;78.73
65378;SHT31;51982;51.042;13.806;2023-03-01T07:32:55;0.14;78.65
65378;SHT31;51982;51.042;13.806;2023-03-01T07:35:22;0.20;78.61
65378;SHT31;51982;51.042;13.806;2023-03-01T07:37:47;0.17;78.54
65378;SHT31;51982;51.042;13.806;2023-03-01T07:40:13;0.25;78.55
65378;SHT31;51982;51.042;13.806;2023-03-01T07:42:38;0.31;78.50
65378;SHT31;51982;51.042;13.806;2023-03-01T07:45:04;0.34;78.47
65378;SHT31;51982;51.042;13.806;2023-03-01T07:47:30;0.31;78.89
65378;SHT31;51982;51.042;13.806;2023-03-01T07:49:55;0.25;79.02
65378;SHT31;51982;51.042;13.806;2023-03-01T07:52:21;0.27;78.74
65378;SHT31;51982;51.042;13.806;2023-03-01T07:54:46;0.31;78.73
65378;SHT31;51982;51.042;13.806;2023-03-01T07:57:11;0.38;78.57
65378;SHT31;51982;51.042;13.806;2023-03-01T07:59:36;0.41;78.55
65378;SHT31;51982;51.042;13.806;2023-03-01T08:02:02;0.41;78.66
65378;SHT31;51982;51.042;13.806;2023-03-01T08:04:27;0.42;78.55
65378;SHT31;51982;51.042;13.806;2023-03-01T08:06:54;0.48;78.63
65378;SHT31;51982;51.042;13.806;2023-03-01T08:09:19;0.45;78.56
65378;SHT31;51982;51.042;13.806;2023-03-01T08:11:44;0.45;78.60
65378;SHT31;51982;51.042;13.806;2023-03-01T08:14:10;0.49;78.56
65378;SHT31;51982;51.042;13.806;2023-03-01T08:16:38;0.59;78.47
65378;SHT31;51982;51.042;13.806;2023-03-01T08:19:08;0.62;78.38
65378;SHT31;51982;51.042;13.806;2023-03-01T08:21:34;0.66;78.72
65378;SHT31;51982;51.042;13.806;2023-03-01T08:24:08;0.64;78.14
65378;SHT31;51982;51.042;13.806;2023-03-01T08:26:35;0.69;78.43
65378;SHT31;51982;51.042;13.806;2023-03-01T08:29:04;0.78;78.25
65378;SHT31;51982;51.042;13.806;2023-03-01T08:31:35;0.82;78.34
65378;SHT31;51982;51.042;13.806;2023-03-01T08:34:02;0.91;78.48
65378;SHT31;51982;51.042;13.806;2023-03-01T08:36:34;0.99;78.62
65378;SHT31;51982;51.042;13.806;2023-03-01T08:39:00;1.00;78.74
65378;SHT31;51982;51.042;13.806;2023-03-01T08:41:25;1.04;78.64
65378;SHT31;51982;51.042;13.806;2023-03-01T08:43:51;1.09;78.58
65378;SHT31;51982;51.042;13.806;2023-03-01T08:46:17;1.10;78.55
65378;SHT31;51982;51.042;13.806;2023-03-01T08:48:45;0.99;78.53
65378;SHT31;51982;51.042;13.806;2023-03-01T08:51:15;1.07;78.60
65378;SHT31;51982;51.042;13.806;2023-03-01T08:53:40;1.07;78.58
65378;SHT31;51982;51.042;13.806;2023-03-01T08:56:07;1.13;78.72
65378;SHT31;51982;51.042;13.806;2023-03-01T08:58:32;1.16;78.84
65378;SHT31;51982;51.042;13.806;2023-03-01T09:00:58;1.24;78.48
65378;SHT31;51982;51.042;13.806;2023-03-01T09:03:24;1.29;78.30
65378;SHT31;51982;51.042;13.806;2023-03-01T09:05:51;1.36;78.34
65378;SHT31;51982;51.042;13.806;2023-03-01T09:08:17;1.39;78.46
65378;SHT31;51982;51.042;13.806;2023-03-01T09:10:42;1.44;78.34
65378;SHT31;51982;51.042;13.806;2023-03-01T09:13:08;1.50;78.56
65378;SHT31;51982;51.042;13.806;2023-03-01T09:15:33;1.54;78.39
65378;SHT31;51982;51.042;13.806;2023-03-01T09:17:59;1.63;78.25
65378;SHT31;51982;51.042;13.806;2023-03-01T09:20:24;1.67;78.06
65378;SHT31;51982;51.042;13.806;2023-03-01T09:22:49;1.68;77.70
65378;SHT31;51982;51.042;13.806;2023-03-01T09:25:15;1.77;77.75
65378;SHT31;51982;51.042;13.806;2023-03-01T09:27:40;1.81;78.00
65378;SHT31;51982;51.042;13.806;2023-03-01T09:30:06;1.88;77.85
65378;SHT31;51982;51.042;13.806;2023-03-01T09:32:31;1.94;77.77
65378;SHT31;51982;51.042;13.806;2023-03-01T09:34:57;2.01;77.81
65378;SHT31;51982;51.042;13.806;2023-03-01T09:37:32;2.09;77.69
65378;SHT31;51982;51.042;13.806;2023-03-01T09:39:58;2.18;77.72
65378;SHT31;51982;51.042;13.806;2023-03-01T09:42:24;2.24;77.52
65378;SHT31;51982;51.042;13.806;2023-03-01T09:44:58;2.29;77.36
65378;SHT31;51982;51.042;13.806;2023-03-01T09:47:31;2.32;77.13
65378;SHT31;51982;51.042;13.806;2023-03-01T09:50:18;2.40;77.08
65378;SHT31;51982;51.042;13.806;2023-03-01T09:53:00;2.47;76.98
65378;SHT31;51982;51.042;13.806;2023-03-01T09:58:25;2.60;76.81
65378;SHT31;51982;51.042;13.806;2023-03-01T10:00:49;2.67;76.61
65378;SHT31;51982;51.042;13.806;2023-03-01T10:03:34;2.69;76.34
65378;SHT31;51982;51.042;13.806;2023-03-01T10:06:08;2.75;76.55
65378;SHT31;51982;51.042;13.806;2023-03-01T10:08:42;2.79;76.62
65378;SHT31;51982;51.042;13.806;2023-03-01T10:11:20;2.86;76.95
65378;SHT31;51982;51.042;13.806;2023-03-01T10:14:23;2.93;76.69
65378;SHT31;51982;51.042;13.806;2023-03-01T10:16:58;3.00;76.52
65378;SHT31;51982;51.042;13.806;2023-03-01T10:19:30;3.04;76.27
65378;SHT31;51982;51.042;13.806;2023-03-01T10:24:42;3.15;75.95
65378;SHT31;51982;51.042;13.806;2023-03-01T10:27:19;3.18;75.65
65378;SHT31;51982;51.042;13.806;2023-03-01T10:29:59;3.25;75.78
65378;SHT31;51982;51.042;13.806;2023-03-01T10:32:28;3.30;75.66
65378;SHT31;51982;51.042;13.806;2023-03-01T10:34:54;3.38;75.76
65378;SHT31;51982;51.042;13.806;2023-03-01T10:37:21;3.42;75.46
65378;SHT31;51982;51.042;13.806;2023-03-01T10:40:03;3.48;75.38
65378;SHT31;51982;51.042;13.806;2023-03-01T10:42:36;3.51;74.46
65378;SHT31;51982;51.042;13.806;2023-03-01T10:48:11;3.58;73.68
65378;SHT31;51982;51.042;13.806;2023-03-01T10:50:39;3.69;73.88
65378;SHT31;51982;51.042;13.806;2023-03-01T10:53:20;3.72;73.54
65378;SHT31;51982;51.042;13.806;2023-03-01T10:55:46;3.85;73.66
65378;SHT31;51982;51.042;13.806;2023-03-01T11:00:55;3.89;72.65
65378;SHT31;51982;51.042;13.806;2023-03-01T11:03:35;4.00;73.03
65378;SHT31;51982;51.042;13.806;2023-03-01T11:08:46;4.07;72.42
65378;SHT31;51982;51.042;13.806;2023-03-01T11:13:49;4.14;71.67
65378;SHT31;51982;51.042;13.806;2023-03-01T11:16:23;4.17;71.78
65378;SHT31;51982;51.042;13.806;2023-03-01T11:19:17;4.23;71.68
65378;SHT31;51982;51.042;13.806;2023-03-01T11:24:17;4.34;71.09
65378;SHT31;51982;51.042;13.806;2023-03-01T11:26:47;4.36;70.59
65378;SHT31;51982;51.042;13.806;2023-03-01T11:29:46;4.40;70.67
65378;SHT31;51982;51.042;13.806;2023-03-01T11:32:16;4.44;69.98
65378;SHT31;51982;51.042;13.806;2023-03-01T11:35:10;4.48;70.09
65378;SHT31;51982;51.042;13.806;2023-03-01T11:37:40;4.57;69.99
65378;SHT31;51982;51.042;13.806;2023-03-01T11:40:12;4.62;69.94
65378;SHT31;51982;51.042;13.806;2023-03-01T11:42:48;4.68;69.64
65378;SHT31;51982;51.042;13.806;2023-03-01T11:45:16;4.75;69.24
65378;SHT31;51982;51.042;13.806;2023-03-01T11:50:38;4.81;68.56
65378;SHT31;51982;51.042;13.806;2023-03-01T11:53:32;4.87;67.88
65378;SHT31;51982;51.042;13.806;2023-03-01T11:56:08;4.92;67.79
65378;SHT31;51982;51.042;13.806;2023-03-01T12:01:38;4.95;66.57
65378;SHT31;51982;51.042;13.806;2023-03-01T12:06:59;4.99;65.80
65378;SHT31;51982;51.042;13.806;2023-03-01T12:20:02;4.95;67.71
65378;SHT31;51982;51.042;13.806;2023-03-01T12:22:36;4.99;67.97
65378;SHT31;51982;51.042;13.806;2023-03-01T12:30:25;4.93;68.17
65378;SHT31;51982;51.042;13.806;2023-03-01T12:33:12;5.06;68.28
65378;SHT31;51982;51.042;13.806;2023-03-01T12:38:32;5.13;68.08
65378;SHT31;51982;51.042;13.806;2023-03-01T12:41:04;5.13;68.27
65378;SHT31;51982;51.042;13.806;2023-03-01T12:46:03;5.26;68.64
65378;SHT31;51982;51.042;13.806;2023-03-01T12:51:25;5.30;68.47
65378;SHT31;51982;51.042;13.806;2023-03-01T12:53:52;5.25;68.07
65378;SHT31;51982;51.042;13.806;2023-03-01T12:56:19;5.33;68.38
65378;SHT31;51982;51.042;13.806;2023-03-01T13:03:57;5.42;67.58
65378;SHT31;51982;51.042;13.806;2023-03-01T13:06:30;5.36;67.82
65378;SHT31;51982;51.042;13.806;2023-03-01T13:08:58;5.43;67.77
65378;SHT31;51982;51.042;13.806;2023-03-01T13:11:26;5.43;66.17
65378;SHT31;51982;51.042;13.806;2023-03-01T13:13:52;5.43;65.57
65378;SHT31;51982;51.042;13.806;2023-03-01T13:19:05;5.59;67.49
65378;SHT31;51982;51.042;13.806;2023-03-01T13:21:31;5.63;67.06
65378;SHT31;51982;51.042;13.806;2023-03-01T13:23:56;5.66;66.55
65378;SHT31;51982;51.042;13.806;2023-03-01T13:26:21;5.64;66.31
65378;SHT31;51982;51.042;13.806;2023-03-01T13:28:47;5.70;65.44
65378;SHT31;51982;51.042;13.806;2023-03-01T13:33:54;5.75;66.41
65378;SHT31;51982;51.042;13.806;2023-03-01T13:44:11;5.71;65.88
65378;SHT31;51982;51.042;13.806;2023-03-01T13:46:36;5.74;66.00
65378;SHT31;51982;51.042;13.806;2023-03-01T13:49:03;5.75;65.34
65378;SHT31;51982;51.042;13.806;2023-03-01T13:51:28;5.80;65.14
65378;SHT31;51982;51.042;13.806;2023-03-01T13:53:53;5.78;64.77
65378;SHT31;51982;51.042;13.806;2023-03-01T13:56:27;5.83;65.46
65378;SHT31;51982;51.042;13.806;2023-03-01T13:58:53;5.87;65.91
65378;SHT31;51982;51.042;13.806;2023-03-01T14:01:21;5.86;66.07
65378;SHT31;51982;51.042;13.806;2023-03-01T14:03:46;5.93;65.64
65378;SHT31;51982;51.042;13.806;2023-03-01T14:06:16;5.91;65.51
65378;SHT31;51982;51.042;13.806;2023-03-01T14:08:42;5.93;65.34
65378;SHT31;51982;51.042;13.806;2023-03-01T14:11:24;5.94;65.50
65378;SHT31;51982;51.042;13.806;2023-03-01T14:14:07;5.98;65.75
65378;SHT31;51982;51.042;13.806;2023-03-01T14:19:25;6.05;64.39
65378;SHT31;51982;51.042;13.806;2023-03-01T14:21:58;6.07;64.83
65378;SHT31;51982;51.042;13.806;2023-03-01T14:24:25;6.12;64.28
65378;SHT31;51982;51.042;13.806;2023-03-01T14:26:53;6.08;64.05
65378;SHT31;51982;51.042;13.806;2023-03-01T14:29:33;6.07;63.88
65378;SHT31;51982;51.042;13.806;2023-03-01T14:32:10;6.11;63.92
65378;SHT31;51982;51.042;13.806;2023-03-01T14:34:35;6.05;64.09
65378;SHT31;51982;51.042;13.806;2023-03-01T14:39:44;6.11;63.97
65378;SHT31;51982;51.042;13.806;2023-03-01T14:42:09;6.12;64.09
65378;SHT31;51982;51.042;13.806;2023-03-01T14:44:35;6.18;63.99
65378;SHT31;51982;51.042;13.806;2023-03-01T14:47:02;6.17;64.07
65378;SHT31;51982;51.042;13.806;2023-03-01T14:49:29;6.14;64.33
65378;SHT31;51982;51.042;13.806;2023-03-01T14:52:05;6.14;64.43
65378;SHT31;51982;51.042;13.806;2023-03-01T14:54:39;6.12;64.42
65378;SHT31;51982;51.042;13.806;2023-03-01T14:57:05;6.15;64.58
65378;SHT31;51982;51.042;13.806;2023-03-01T14:59:32;6.15;65.06
65378;SHT31;51982;51.042;13.806;2023-03-01T15:01:58;6.18;65.45
65378;SHT31;51982;51.042;13.806;2023-03-01T15:04:24;6.18;64.89
65378;SHT31;51982;51.042;13.806;2023-03-01T15:06:51;6.17;65.32
65378;SHT31;51982;51.042;13.806;2023-03-01T15:09:17;6.21;65.25
65378;SHT31;51982;51.042;13.806;2023-03-01T15:11:43;6.14;64.95
65378;SHT31;51982;51.042;13.806;2023-03-01T15:16:53;6.18;65.37
65378;SHT31;51982;51.042;13.806;2023-03-01T15:19:18;6.17;65.31
65378;SHT31;51982;51.042;13.806;2023-03-01T15:21:44;6.11;65.03
65378;SHT31;51982;51.042;13.806;2023-03-01T15:26:45;6.15;65.08
65378;SHT31;51982;51.042;13.806;2023-03-01T15:29:15;6.12;65.44
65378;SHT31;51982;51.042;13.806;2023-03-01T15:31:41;6.14;65.51
65378;SHT31;51982;51.042;13.806;2023-03-01T15:34:22;6.18;65.82
65378;SHT31;51982;51.042;13.806;2023-03-01T15:36:48;6.15;64.88
65378;SHT31;51982;51.042;13.806;2023-03-01T15:41:55;6.15;65.28
65378;SHT31;51982;51.042;13.806;2023-03-01T15:44:31;6.12;65.40
65378;SHT31;51982;51.042;13.806;2023-03-01T15:46:56;6.08;65.64
65378;SHT31;51982;51.042;13.806;2023-03-01T15:51:49;6.10;65.35
65378;SHT31;51982;51.042;13.806;2023-03-01T15:54:17;6.10;65.41
65378;SHT31;51982;51.042;13.806;2023-03-01T15:56:43;6.02;65.57
65378;SHT31;51982;51.042;13.806;2023-03-01T15:59:09;6.00;65.64
65378;SHT31;51982;51.042;13.806;2023-03-01T16:01:36;6.01;65.98
65378;SHT31;51982;51.042;13.806;2023-03-01T16:04:02;5.98;65.84
65378;SHT31;51982;51.042;13.806;2023-03-01T16:06:27;5.95;66.13
65378;SHT31;51982;51.042;13.806;2023-03-01T16:08:52;5.94;66.12
65378;SHT31;51982;51.042;13.806;2023-03-01T16:11:18;5.90;65.85
65378;SHT31;51982;51.042;13.806;2023-03-01T16:13:43;5.89;66.04
65378;SHT31;51982;51.042;13.806;2023-03-01T16:16:12;5.87;66.29
65378;SHT31;51982;51.042;13.806;2023-03-01T16:18:40;5.86;66.22
65378;SHT31;51982;51.042;13.806;2023-03-01T16:21:05;5.83;66.30
65378;SHT31;51982;51.042;13.806;2023-03-01T16:23:31;5.78;66.38
65378;SHT31;51982;51.042;13.806;2023-03-01T16:25:59;5.75;66.53
65378;SHT31;51982;51.042;13.806;2023-03-01T16:28:25;5.74;65.86
65378;SHT31;51982;51.042;13.806;2023-03-01T16:30:51;5.71;66.06
65378;SHT31;51982;51.042;13.806;2023-03-01T16:33:19;5.69;66.53
65378;SHT31;51982;51.042;13.806;2023-03-01T16:35:45;5.64;66.55
65378;SHT31;51982;51.042;13.806;2023-03-01T16:38:10;5.61;66.81
65378;SHT31;51982;51.042;13.806;2023-03-01T16:40:35;5.60;67.18
65378;SHT31;51982;51.042;13.806;2023-03-01T16:43:01;5.56;67.40
65378;SHT31;51982;51.042;13.806;2023-03-01T16:45:27;5.53;67.47
65378;SHT31;51982;51.042;13.806;2023-03-01T16:47:52;5.47;67.73
65378;SHT31;51982;51.042;13.806;2023-03-01T16:50:17;5.44;67.50
65378;SHT31;51982;51.042;13.806;2023-03-01T16:52:43;5.43;68.00
65378;SHT31;51982;51.042;13.806;2023-03-01T16:55:08;5.36;68.15
65378;SHT31;51982;51.042;13.806;2023-03-01T16:57:34;5.33;68.29
65378;SHT31;51982;51.042;13.806;2023-03-01T17:00:00;5.28;68.92
65378;SHT31;51982;51.042;13.806;2023-03-01T17:02:25;5.25;68.78
65378;SHT31;51982;51.042;13.806;2023-03-01T17:04:54;5.20;68.77
65378;SHT31;51982;51.042;13.806;2023-03-01T17:07:19;5.16;68.95